Terminal Aerodrome Forecast
Issued by NWS

Home | Current Version | Previous Version | Text Only | Print | Product List | Glossary On
Versions: 1 2 3 4 5 6 7 8 9 10 11 12 13 14 15 16
000
FTUS45 KTFX 210545
TAFBZN
TAF
KBZN 210545Z 2106/2212 VRB05KT P6SM SCT070 BKN150
      TEMPO 2106/2108 -SHRA BKN060
     FM211600 VRB05KT P6SM VCSH SCT060 BKN090 PROB30 2119/2122 -TSRA
      BKN050CB
     FM212200 VRB05KT P6SM -SHRA SCT040 OVC070 PROB30 2122/2203
      -TSRA BKN040CB
     FM220600 VRB04KT P6SM VCSH SCT030 OVC050=

USA.gov is the U.S. government's official web portal to all federal, state and local government web resources and services.